Time;durP1;ratioP1;P1;durP2;ratioP2;P2;SDS_P1;SDS_P2;PMS_P1;PMS_P2;Temp;Humidity;BMP_temperature;BMP_pressure;BME280_temperature;BME280_humidity;BME280_pressure;Samples;Min_cycle;Max_cycle;Signal;HPM_P1;HPM_P2
2024/01/10 00:01:26;;;;;;;2.03;1.50;;;-2.40;93.70;;;-2.94;57.71;96022.34;5010977;28;20476;-62
2024/01/10 00:03:55;;;;;;;2.77;2.30;;;-2.40;93.60;;;-2.93;57.33;96015.47;5012431;28;20516;-64
2024/01/10 00:06:23;;;;;;;1.73;1.63;;;-2.40;93.30;;;-2.96;58.12;96018.97;5012446;28;20473;-65
2024/01/10 00:08:50;;;;;;;1.90;1.80;;;-2.40;93.30;;;-2.96;57.98;96010.38;5016720;28;20871;-64
2024/01/10 00:11:18;;;;;;;2.83;1.80;;;-2.50;93.50;;;-2.95;57.80;96012.91;5009635;28;20478;-62
2024/01/10 00:13:45;;;;;;;2.27;2.13;;;-2.40;93.70;;;-2.89;58.76;96019.69;5012609;28;20458;-65
2024/01/10 00:16:14;;;;;;;2.50;2.30;;;-2.40;93.70;;;-2.87;57.59;96010.19;5012030;28;20466;-62
2024/01/10 00:18:41;;;;;;;4.90;1.60;;;-2.40;93.40;;;-2.85;57.87;96020.47;5011990;28;20992;-62
2024/01/10 00:21:11;;;;;;;3.43;2.23;;;-2.30;93.20;;;-2.86;57.62;96017.03;5011911;28;20473;-65
2024/01/10 00:23:38;;;;;;;2.90;2.70;;;-2.40;93.00;;;-2.84;58.26;96014.44;5012641;28;20493;-64
2024/01/10 00:26:06;;;;;;;2.53;2.33;;;-2.30;93.30;;;-2.84;56.90;96014.44;5011954;28;20473;-62
2024/01/10 00:28:33;;;;;;;3.20;2.30;;;-2.40;93.00;;;-2.83;57.96;96019.56;5013073;28;20454;-64
2024/01/10 00:31:01;;;;;;;4.47;2.13;;;-2.30;93.30;;;-2.83;57.60;96024.69;5012371;28;20469;-63
2024/01/10 00:33:28;;;;;;;2.40;1.90;;;-2.30;93.50;;;-2.80;58.25;96026.38;5014158;28;20833;-62
2024/01/10 00:35:55;;;;;;;3.83;1.90;;;-2.30;93.50;;;-2.76;58.45;96017.69;5014304;28;20473;-62
2024/01/10 00:38:24;;;;;;;2.20;1.97;;;-2.30;93.70;;;-2.68;57.96;96031.28;5012284;28;20469;-61
2024/01/10 00:40:52;;;;;;;2.27;1.80;;;-2.20;93.80;;;-2.61;58.40;96029.41;5011197;28;21001;-61
2024/01/10 00:43:19;;;;;;;3.43;2.00;;;-2.10;93.80;;;-2.56;57.73;96028.44;5011206;28;20492;-60
2024/01/10 00:45:46;;;;;;;2.03;1.87;;;-2.10;93.40;;;-2.51;57.86;96028.34;5010911;28;20577;-61
2024/01/10 00:48:14;;;;;;;2.77;1.73;;;-2.00;93.50;;;-2.48;57.62;96027.44;5010920;28;20458;-61
2024/01/10 00:50:41;;;;;;;2.00;1.83;;;-2.00;93.50;;;-2.45;58.06;96024.78;5010942;28;20489;-62
2024/01/10 00:53:08;;;;;;;1.93;1.73;;;-2.00;93.40;;;-2.43;57.28;96028.16;5011005;28;20446;-64
2024/01/10 00:55:37;;;;;;;1.90;1.73;;;-2.00;93.10;;;-2.42;56.12;96029.88;5010743;28;20974;-64
2024/01/10 00:58:05;;;;;;;3.43;2.17;;;-1.90;92.20;;;-2.42;57.06;96033.28;5010746;28;20457;-65
2024/01/10 01:00:33;;;;;;;9.30;2.20;;;-1.90;92.60;;;-2.40;57.63;96021.25;5011457;28;20469;-64
2024/01/10 01:03:01;;;;;;;1.80;1.70;;;-1.90;92.90;;;-2.36;57.52;96022.00;5009582;28;20485;-62
2024/01/10 01:05:28;;;;;;;3.60;1.97;;;-1.90;92.80;;;-2.36;56.02;96025.44;5010924;28;20553;-63
2024/01/10 01:07:55;;;;;;;2.80;2.00;;;-1.90;92.00;;;-2.39;55.68;96022.91;5011046;28;20446;-64
2024/01/10 01:10:22;;;;;;;2.50;2.30;;;-1.90;91.50;;;-2.43;56.12;96026.47;5010942;28;20473;-65
2024/01/10 01:12:51;;;;;;;9.40;2.40;;;-1.90;91.70;;;-2.46;55.22;96020.50;5010222;28;20453;-64
2024/01/10 01:15:19;;;;;;;8.47;2.17;;;-2.00;91.30;;;-2.50;56.00;96018.91;5010384;28;20554;-61
2024/01/10 01:17:46;;;;;;;4.00;1.63;;;-2.00;91.30;;;-2.54;56.15;96025.81;5010584;28;20555;-61
2024/01/10 01:20:13;;;;;;;1.90;1.80;;;-2.00;91.70;;;-2.56;54.94;96031.00;5010270;28;20481;-64
2024/01/10 01:22:41;;;;;;;2.70;1.80;;;-2.10;91.00;;;-2.57;56.28;96029.31;5010237;28;20517;-64
2024/01/10 01:25:09;;;;;;;2.40;2.20;;;-2.10;91.80;;;-2.57;56.86;96034.47;5010623;28;20470;-64
2024/01/10 01:27:37;;;;;;;1.60;1.50;;;-2.10;92.20;;;-2.54;57.08;96023.25;5011134;28;20449;-64
2024/01/10 01:30:08;;;;;;;2.60;2.10;;;-2.10;92.20;;;-2.49;56.55;96020.56;5005933;28;20472;-64
2024/01/10 01:32:35;;;;;;;3.47;2.20;;;-2.10;92.30;;;-2.47;56.86;96019.66;5007172;28;20500;-64
2024/01/10 01:35:03;;;;;;;2.40;2.20;;;-2.00;92.30;;;-2.47;56.23;96021.41;5010666;28;20993;-61
2024/01/10 01:37:31;;;;;;;2.70;2.30;;;-2.00;92.30;;;-2.46;56.84;96015.34;5010392;28;20554;-65
2024/01/10 01:39:58;;;;;;;4.10;2.70;;;-2.00;92.20;;;-2.44;56.08;96013.63;5010474;28;20523;-64
2024/01/10 01:42:25;;;;;;;4.20;2.10;;;-2.00;91.80;;;-2.43;56.39;96016.16;5010707;28;20878;-61
2024/01/10 01:44:53;;;;;;;2.23;2.03;;;-2.00;91.90;;;-2.43;55.76;96013.59;5010428;28;20474;-64
2024/01/10 01:47:22;;;;;;;3.47;2.67;;;-2.00;91.50;;;-2.42;56.45;96011.84;5010204;28;20481;-64
2024/01/10 01:49:49;;;;;;;2.73;2.17;;;-2.00;91.90;;;-2.42;54.66;96015.25;5003353;28;20536;-65
2024/01/10 01:52:16;;;;;;;4.37;2.17;;;-1.90;90.80;;;-2.42;56.66;96004.94;5010346;28;20469;-61
2024/01/10 01:54:44;;;;;;;2.00;1.90;;;-1.90;91.80;;;-2.37;55.76;96010.00;5006188;28;20458;-64
2024/01/10 01:57:11;;;;;;;2.80;2.30;;;-1.90;91.80;;;-2.35;56.10;96005.69;5009975;28;20847;-63
2024/01/10 01:59:38;;;;;;;3.27;2.30;;;-1.90;91.60;;;-2.31;55.46;96003.88;5010035;28;21186;-62
2024/01/10 02:02:06;;;;;;;3.93;2.10;;;-1.80;91.50;;;-2.29;55.83;95995.25;5010095;28;20454;-62
2024/01/10 02:04:35;;;;;;;2.33;2.07;;;-1.80;91.40;;;-2.26;54.58;95992.59;5009829;28;20515;-61
2024/01/10 02:07:02;;;;;;;2.33;1.90;;;-1.80;90.70;;;-2.25;55.40;95989.13;5009561;28;20472;-64
2024/01/10 02:09:29;;;;;;;3.63;2.27;;;-1.80;91.10;;;-2.26;55.16;95990.03;5003622;28;20446;-64
2024/01/10 02:11:57;;;;;;;2.03;1.90;;;-1.80;90.70;;;-2.28;53.41;95983.19;5010218;28;20469;-65
2024/01/10 02:14:24;;;;;;;2.23;2.03;;;-1.80;88.30;;;-2.30;52.81;95993.53;5005687;28;20446;-63
2024/01/10 02:16:53;;;;;;;4.73;2.00;;;-1.80;88.10;;;-2.33;53.55;95983.31;5007105;28;20476;-62
2024/01/10 02:19:22;;;;;;;2.43;1.67;;;-1.80;88.40;;;-2.34;54.40;95991.91;5009670;28;20826;-62
2024/01/10 02:21:50;;;;;;;4.00;1.80;;;-1.90;89.40;;;-2.33;53.97;95990.19;5009746;28;20473;-60
2024/01/10 02:24:17;;;;;;;4.10;2.00;;;-1.90;89.60;;;-2.35;52.75;95988.50;5009505;28;20527;-61
2024/01/10 02:26:45;;;;;;;2.80;2.33;;;-1.90;87.70;;;-2.33;54.41;95991.03;5009588;28;20466;-64
2024/01/10 02:29:13;;;;;;;5.70;1.80;;;-1.80;89.60;;;-2.33;54.22;95982.47;5009529;28;20871;-62
2024/01/10 02:31:40;;;;;;;3.13;1.40;;;-1.80;90.00;;;-2.33;54.51;95983.31;5006589;28;20466;-62
2024/01/10 02:34:07;;;;;;;2.13;1.63;;;-1.80;89.50;;;-2.33;53.30;95980.72;5006232;28;20512;-64
2024/01/10 02:36:35;;;;;;;3.33;2.03;;;-1.80;86.90;;;-2.34;53.99;95986.75;5009406;28;20527;-65
2024/01/10 02:39:02;;;;;;;1.37;1.27;;;-1.90;88.50;;;-2.32;54.77;95987.59;5009511;28;20454;-64
2024/01/10 02:41:29;;;;;;;6.10;1.70;;;-1.80;89.50;;;-2.32;52.31;95984.13;5009573;28;20497;-61
2024/01/10 02:43:59;;;;;;;1.60;1.50;;;-1.80;85.50;;;-2.32;52.56;95987.59;5008109;28;20492;-65
2024/01/10 02:46:28;;;;;;;1.83;1.73;;;-1.90;85.70;;;-2.36;52.20;95980.78;5008845;28;21010;-65
2024/01/10 02:48:56;;;;;;;1.70;1.50;;;-1.90;85.50;;;-2.39;52.16;95986.84;5007892;28;20970;-61
2024/01/10 02:51:23;;;;;;;1.87;1.70;;;-1.90;85.10;;;-2.41;51.82;95990.38;5008699;28;20509;-61
2024/01/10 02:53:50;;;;;;;2.00;1.80;;;-1.90;84.20;;;-2.43;53.40;95992.09;5009384;28;20458;-61
2024/01/10 02:56:18;;;;;;;1.70;1.57;;;-1.90;86.30;;;-2.48;51.73;95983.63;5008319;28;20480;-64
2024/01/10 02:58:48;;;;;;;1.63;1.53;;;-2.00;83.40;;;-2.48;51.20;95987.06;5002527;28;21692;-64
2024/01/10 03:01:17;;;;;;;1.80;1.70;;;-2.00;82.80;;;-2.50;52.27;95988.00;5008800;28;20519;-65
2024/01/10 03:03:44;;;;;;;2.37;1.87;;;-2.00;84.40;;;-2.54;52.83;95985.47;5008949;28;21007;-62
2024/01/10 03:06:12;;;;;;;2.03;1.60;;;-2.00;84.40;;;-2.58;50.86;95986.41;5009111;28;20470;-60
2024/01/10 03:08:39;;;;;;;4.70;1.93;;;-2.10;82.90;;;-2.60;52.92;95971.88;5013213;28;20453;-65
2024/01/10 03:11:06;;;;;;;2.33;1.40;;;-2.10;84.60;;;-2.60;52.36;95987.31;5015753;28;20600;-64
2024/01/10 03:13:34;;;;;;;11.43;1.60;;;-2.10;84.50;;;-2.59;52.49;95978.72;5013423;28;20524;-65
2024/01/10 03:16:01;;;;;;;1.63;1.33;;;-2.10;85.30;;;-2.59;53.62;95979.56;5009971;28;20497;-65
2024/01/10 03:18:30;;;;;;;1.20;1.10;;;-2.10;87.00;;;-2.58;52.98;95986.41;5014211;28;20454;-64
2024/01/10 03:20:57;;;;;;;3.73;1.50;;;-2.10;85.30;;;-2.58;51.32;95991.56;5022194;28;21076;-61
2024/01/10 03:23:25;;;;;;;1.73;1.63;;;-2.10;84.00;;;-2.56;53.17;95996.69;5014821;28;20839;-64
2024/01/10 03:25:52;;;;;;;4.10;1.73;;;-2.10;85.30;;;-2.55;53.77;95996.66;5014882;28;20599;-62
2024/01/10 03:28:19;;;;;;;1.70;1.60;;;-2.10;86.60;;;-2.50;53.32;95995.72;5009538;28;20471;-62
2024/01/10 03:30:47;;;;;;;11.47;2.20;;;-2.00;87.00;;;-2.48;52.68;96002.50;5009445;28;20478;-65
2024/01/10 03:33:15;;;;;;;2.20;1.90;;;-2.00;86.20;;;-2.50;51.36;96000.88;5012926;28;20464;-62
2024/01/10 03:35:44;;;;;;;1.60;1.50;;;-2.00;83.70;;;-2.54;50.40;95998.34;5012075;28;20481;-64
2024/01/10 03:38:12;;;;;;;1.40;1.30;;;-2.00;81.80;;;-2.54;51.06;95998.34;5009053;28;20462;-64
2024/01/10 03:40:39;;;;;;;2.33;1.60;;;-2.00;82.50;;;-2.55;51.53;95994.06;5014873;28;20469;-65
2024/01/10 03:43:08;;;;;;;1.30;1.20;;;-2.00;82.90;;;-2.54;52.46;96003.50;5013382;28;20551;-62
2024/01/10 03:45:35;;;;;;;2.13;1.70;;;-2.10;84.80;;;-2.50;52.79;95995.72;5012983;28;20478;-64
2024/01/10 03:48:02;;;;;;;5.27;2.30;;;-2.00;86.40;;;-2.47;53.33;96000.81;5012390;28;20445;-64
2024/01/10 03:50:29;;;;;;;3.83;1.97;;;-2.00;85.90;;;-2.42;53.10;96002.38;5012524;28;20477;-64
2024/01/10 03:52:58;;;;;;;3.50;2.30;;;-2.00;85.90;;;-2.37;53.15;95997.13;5012898;28;20448;-62
2024/01/10 03:55:26;;;;;;;3.10;2.07;;;-1.90;86.00;;;-2.34;53.05;96007.34;5012461;28;20509;-61
2024/01/10 03:57:54;;;;;;;1.47;1.37;;;-1.90;85.40;;;-2.30;53.01;96006.44;5012290;28;20527;-62
2024/01/10 04:00:21;;;;;;;3.50;2.00;;;-1.80;86.30;;;-2.26;52.92;96002.03;5004960;28;20507;-62
2024/01/10 04:02:48;;;;;;;2.13;1.77;;;-1.80;86.50;;;-2.22;53.42;95999.34;5011856;28;20533;-61
2024/01/10 04:05:16;;;;;;;7.93;2.13;;;-1.70;86.10;;;-2.18;53.02;95998.41;5012261;28;20477;-64
2024/01/10 04:07:44;;;;;;;2.37;2.00;;;-1.70;85.70;;;-2.14;52.04;95996.59;5012062;28;20862;-65
2024/01/10 04:10:14;;;;;;;4.77;1.60;;;-1.70;84.40;;;-2.13;51.78;96006.03;5011699;28;20465;-64
2024/01/10 04:12:41;;;;;;;4.10;2.33;;;-1.60;83.40;;;-2.14;50.51;96003.50;5010392;28;20949;-68
2024/01/10 04:15:09;;;;;;;1.97;1.83;;;-1.70;81.40;;;-2.14;52.79;96000.94;5007782;28;20632;-63
2024/01/10 04:17:37;;;;;;;2.70;2.10;;;-1.70;84.20;;;-2.13;52.29;96006.03;5008976;28;20452;-62
2024/01/10 04:20:06;;;;;;;5.27;2.93;;;-1.60;84.50;;;-2.11;52.33;96006.84;5011855;28;21076;-61
2024/01/10 04:22:34;;;;;;;2.27;2.00;;;-1.60;85.00;;;-2.09;50.91;96006.81;5006008;28;20454;-61
2024/01/10 04:25:02;;;;;;;4.27;2.30;;;-1.60;82.30;;;-2.09;50.44;96014.53;5007039;28;20545;-62
2024/01/10 04:27:31;;;;;;;2.20;1.93;;;-1.60;80.80;;;-2.08;51.28;96011.09;5007848;28;20455;-61
2024/01/10 04:29:58;;;;;;;3.87;2.20;;;-1.60;81.20;;;-2.09;50.35;96014.53;5010642;28;20466;-62
2024/01/10 04:32:25;;;;;;;2.60;1.80;;;-1.60;80.80;;;-2.09;50.57;96009.38;5010144;28;20587;-62
2024/01/10 04:34:53;;;;;;;2.30;2.03;;;-1.60;81.00;;;-2.11;51.09;96016.31;5011711;28;20478;-62
2024/01/10 04:37:20;;;;;;;3.77;2.10;;;-1.60;81.50;;;-2.08;51.82;96021.41;5010210;28;20446;-60
2024/01/10 04:39:47;;;;;;;3.40;2.30;;;-1.60;82.70;;;-2.07;50.77;96029.09;5010987;28;20489;-64
2024/01/10 04:42:15;;;;;;;5.47;3.20;;;-1.60;81.50;;;-2.07;51.26;96036.84;5011244;28;20450;-64
2024/01/10 04:44:44;;;;;;;2.77;2.53;;;-1.60;81.90;;;-2.03;51.31;96035.91;5012114;28;20492;-65
2024/01/10 04:47:11;;;;;;;3.83;2.30;;;-1.50;82.70;;;-2.00;51.65;96037.53;5011414;28;20446;-65
2024/01/10 04:49:39;;;;;;;4.60;2.77;;;-1.50;82.80;;;-1.96;50.89;96046.91;5004186;28;20465;-64
2024/01/10 04:52:06;;;;;;;2.93;2.23;;;-1.50;81.90;;;-1.95;51.75;96035.72;5009169;28;20493;-64
2024/01/10 04:54:35;;;;;;;2.47;2.30;;;-1.50;82.50;;;-1.94;51.06;96034.81;5008854;28;21226;-64
2024/01/10 04:57:03;;;;;;;10.20;3.07;;;-1.40;82.00;;;-1.91;51.01;96042.47;5011150;28;20532;-65
2024/01/10 04:59:30;;;;;;;4.10;2.70;;;-1.40;81.90;;;-1.88;51.63;96045.00;5011292;28;20450;-64
2024/01/10 05:01:59;;;;;;;3.83;2.70;;;-1.40;82.70;;;-1.87;50.40;96044.13;5010200;28;20457;-62
2024/01/10 05:04:26;;;;;;;3.00;2.70;;;-1.40;79.80;;;-1.87;50.78;96041.53;5007738;28;20584;-61
2024/01/10 05:06:54;;;;;;;3.20;2.90;;;-1.40;80.70;;;-1.86;50.81;96048.41;5011260;28;20485;-62
2024/01/10 05:09:22;;;;;;;2.90;2.50;;;-1.40;79.90;;;-1.83;51.28;96032.84;5010924;28;20446;-62
2024/01/10 05:11:51;;;;;;;6.10;3.20;;;-1.30;81.60;;;-1.79;50.90;96040.53;5010757;28;20496;-66
2024/01/10 05:14:19;;;;;;;2.47;2.27;;;-1.30;81.10;;;-1.78;50.16;96049.94;5010792;28;20457;-62
2024/01/10 05:16:47;;;;;;;2.60;2.50;;;-1.30;80.20;;;-1.76;50.85;96049.03;5008796;28;20864;-68
2024/01/10 05:19:16;;;;;;;3.70;3.40;;;-1.30;80.90;;;-1.75;50.54;96048.16;5010998;28;20457;-68
2024/01/10 05:21:43;;;;;;;3.20;2.90;;;-1.30;80.50;;;-1.73;50.54;96048.13;5010102;28;20540;-62
2024/01/10 05:24:11;;;;;;;4.13;2.60;;;-1.30;80.50;;;-1.75;49.21;96039.53;5009663;28;20576;-62
2024/01/10 05:26:38;;;;;;;3.80;2.37;;;-1.30;77.80;;;-1.80;48.11;96047.38;5010011;28;20541;-61
2024/01/10 05:29:06;;;;;;;6.27;2.57;;;-1.30;75.30;;;-1.84;50.04;96051.78;5009822;28;20472;-61
2024/01/10 05:31:33;;;;;;;3.37;2.47;;;-1.30;79.10;;;-1.84;49.88;96051.78;5009664;28;20496;-61
2024/01/10 05:34:01;;;;;;;5.33;2.83;;;-1.30;79.10;;;-1.86;49.54;96056.13;5008982;28;21174;-62
2024/01/10 05:36:30;;;;;;;4.90;2.93;;;-1.40;77.70;;;-1.87;49.75;96057.00;5010685;28;20473;-61
2024/01/10 05:38:58;;;;;;;4.30;2.53;;;-1.40;78.60;;;-1.85;49.82;96064.72;5010161;28;20981;-62
2024/01/10 05:41:26;;;;;;;8.43;3.03;;;-1.40;78.90;;;-1.87;49.28;96067.31;5009662;28;20480;-62
2024/01/10 05:43:54;;;;;;;10.00;3.07;;;-1.40;78.00;;;-1.88;48.70;96051.88;5009985;28;20550;-62
2024/01/10 05:46:21;;;;;;;8.10;3.20;;;-1.40;76.30;;;-1.91;49.18;96060.53;5009615;28;20481;-61
2024/01/10 05:48:49;;;;;;;2.03;1.93;;;-1.40;77.30;;;-1.95;48.38;96058.91;5008835;28;20454;-60
2024/01/10 05:51:17;;;;;;;7.73;2.40;;;-1.40;75.10;;;-1.97;49.11;96065.81;5009821;28;20556;-61
2024/01/10 05:53:46;;;;;;;2.50;2.30;;;-1.50;76.60;;;-1.98;49.57;96064.16;5010518;28;20458;-65
2024/01/10 05:56:13;;;;;;;2.80;2.17;;;-1.50;77.20;;;-1.99;49.59;96065.84;5010286;28;20466;-64
2024/01/10 05:58:41;;;;;;;7.07;4.30;;;-1.50;77.70;;;-2.00;48.28;96068.47;5010325;28;20496;-62
2024/01/10 06:01:09;;;;;;;6.20;3.23;;;-1.50;76.10;;;-2.02;48.76;96073.66;5008982;28;20528;-62
2024/01/10 06:03:38;;;;;;;3.00;2.40;;;-1.50;75.30;;;-2.03;47.99;96076.28;5003286;28;21018;-62
2024/01/10 06:06:06;;;;;;;5.13;2.70;;;-1.50;74.50;;;-2.05;49.02;96085.78;5004005;28;20470;-62
2024/01/10 06:08:33;;;;;;;11.40;2.80;;;-1.60;74.70;;;-2.06;49.57;96078.91;5008399;28;20449;-61
2024/01/10 06:11:06;;;;;;;7.07;3.37;;;-1.60;76.10;;;-2.09;46.52;96079.84;5008363;28;20920;-61
2024/01/10 06:13:33;;;;;;;10.73;4.03;;;-1.60;71.60;;;-2.10;48.18;96080.72;5007378;28;20488;-61
2024/01/10 06:16:02;;;;;;;3.90;3.10;;;-1.60;73.60;;;-2.09;48.93;96086.72;5005229;28;20528;-61
2024/01/10 06:18:29;;;;;;;7.63;2.93;;;-1.60;75.60;;;-2.06;49.27;96086.66;5009872;28;20512;-64
2024/01/10 06:20:57;;;;;;;6.47;3.20;;;-1.60;76.70;;;-2.02;48.96;96089.13;5009161;28;20543;-64
2024/01/10 06:23:24;;;;;;;7.33;4.63;;;-1.60;76.40;;;-2.00;47.20;96089.97;5009311;28;20485;-64
2024/01/10 06:25:54;;;;;;;4.87;3.83;;;-1.50;73.90;;;-2.02;46.16;96093.44;5009267;28;20477;-65
2024/01/10 06:28:23;;;;;;;6.33;3.20;;;-1.50;71.30;;;-2.06;47.52;96091.81;5009667;28;20521;-65
2024/01/10 06:30:50;;;;;;;4.80;2.80;;;-1.60;73.10;;;-2.07;48.80;96105.59;5006473;28;20833;-65
2024/01/10 06:33:19;;;;;;;3.47;2.20;;;-1.60;74.70;;;-2.08;48.25;96099.56;5005691;28;20457;-64
2024/01/10 06:35:47;;;;;;;7.23;3.27;;;-1.60;74.70;;;-2.11;48.19;96103.94;5009459;28;20464;-65
2024/01/10 06:38:16;;;;;;;13.50;3.20;;;-1.60;74.60;;;-2.12;48.59;96108.28;5009791;28;20469;-64
2024/01/10 06:40:45;;;;;;;7.27;3.87;;;-1.60;74.50;;;-2.11;48.50;96098.78;5008957;28;20760;-64
2024/01/10 06:43:12;;;;;;;10.60;3.83;;;-1.60;75.30;;;-2.10;48.73;96109.06;5005412;28;21023;-65
2024/01/10 06:45:42;;;;;;;8.43;4.03;;;-1.60;74.80;;;-2.12;48.38;96113.41;5008970;28;20489;-65
2024/01/10 06:48:09;;;;;;;7.43;3.90;;;-1.60;74.60;;;-2.14;48.22;96119.47;5004080;28;20472;-65
2024/01/10 06:50:38;;;;;;;6.20;3.20;;;-1.70;74.90;;;-2.16;48.22;96112.63;5007082;28;20484;-61
2024/01/10 06:53:05;;;;;;;6.37;3.73;;;-1.70;74.20;;;-2.17;49.17;96121.25;5009306;28;20458;-62
2024/01/10 06:55:33;;;;;;;6.83;2.87;;;-1.70;75.60;;;-2.16;48.86;96122.09;5005497;28;20485;-65
2024/01/10 06:58:00;;;;;;;6.10;3.43;;;-1.70;75.60;;;-2.12;49.33;96123.72;5005781;28;20447;-64
2024/01/10 07:00:27;;;;;;;6.33;3.10;;;-1.60;76.10;;;-2.06;49.26;96117.56;5009091;28;20511;-65
2024/01/10 07:02:56;;;;;;;10.57;3.70;;;-1.60;76.60;;;-1.98;49.31;96123.44;5007570;28;20464;-64
2024/01/10 07:05:24;;;;;;;7.03;4.03;;;-1.50;76.80;;;-1.92;49.68;96119.84;5005616;28;20500;-64
2024/01/10 07:07:52;;;;;;;9.77;5.27;;;-1.50;77.40;;;-1.87;49.31;96124.03;5005452;28;20962;-64
2024/01/10 07:10:19;;;;;;;10.30;4.87;;;-1.40;77.10;;;-1.79;49.53;96123.03;5004916;28;20476;-66
2024/01/10 07:12:47;;;;;;;11.77;5.10;;;-1.30;77.20;;;-1.71;49.62;96131.44;5010004;28;20457;-64
2024/01/10 07:15:14;;;;;;;9.60;4.20;;;-1.30;77.70;;;-1.63;52.74;96134.69;5008898;28;21021;-64
2024/01/10 07:17:42;;;;;;;17.83;6.33;;;-1.20;82.40;;;-1.47;51.85;96138.63;5006976;28;20445;-68
2024/01/10 07:20:12;;;;;;;12.00;6.10;;;-1.00;82.20;;;-1.32;50.40;96140.00;5009157;28;20473;-64
2024/01/10 07:22:41;;;;;;;12.00;6.63;;;-0.90;80.20;;;-1.22;49.84;96126.84;5004622;28;20517;-62
2024/01/10 07:25:09;;;;;;;19.40;6.83;;;-0.80;78.60;;;-1.12;49.81;96141.25;5005383;28;20576;-62
2024/01/10 07:27:37;;;;;;;15.20;8.20;;;-0.70;78.60;;;-1.05;49.51;96134.19;5005577;28;20458;-64
2024/01/10 07:30:13;;;;;;;12.27;7.23;;;-0.60;78.00;;;-0.97;49.70;96133.13;5011270;28;20466;-64
2024/01/10 07:32:41;;;;;;;15.83;7.20;;;-0.60;78.40;;;-0.88;49.70;96144.97;5002734;28;20445;-64
2024/01/10 07:35:11;;;;;;;21.47;7.37;;;-0.50;78.80;;;-0.79;49.25;96143.84;5009525;28;20523;-64
2024/01/10 07:37:39;;;;;;;15.30;8.37;;;-0.40;77.90;;;-0.73;49.91;96154.91;5009211;28;20461;-64
2024/01/10 07:40:08;;;;;;;22.33;8.53;;;-0.30;78.00;;;-0.65;49.78;96164.16;5008912;28;20505;-62
2024/01/10 07:42:35;;;;;;;12.63;7.27;;;-0.20;79.00;;;-0.57;49.94;96157.09;5008595;28;20485;-62
2024/01/10 07:45:04;;;;;;;12.33;6.90;;;-0.20;79.10;;;-0.47;48.81;96153.34;5007857;28;20493;-62
2024/01/10 07:47:32;;;;;;;18.27;7.70;;;-0.10;77.70;;;-0.40;49.57;96148.88;5008728;28;20453;-61
2024/01/10 07:50:01;;;;;;;19.03;8.47;;;0.00;78.40;;;-0.29;49.28;96146.00;5004775;28;20465;-61
2024/01/10 07:52:30;;;;;;;15.53;8.07;;;0.10;78.10;;;-0.22;47.43;96152.69;5001073;28;20589;-61
2024/01/10 07:54:57;;;;;;;12.90;7.20;;;0.20;75.00;;;-0.20;48.92;96150.91;5012692;28;20477;-65
2024/01/10 07:57:26;;;;;;;19.83;8.50;;;0.20;75.20;;;-0.10;48.75;96151.50;5012388;28;20477;-64
2024/01/10 07:59:54;;;;;;;17.00;6.60;;;0.30;77.00;;;0.22;47.50;96150.56;5012457;28;20465;-64
2024/01/10 08:02:21;;;;;;;19.40;10.90;;;0.60;74.60;;;0.80;48.45;96145.31;5011857;28;20549;-61
2024/01/10 08:04:49;;;;;;;13.23;7.50;;;1.10;76.30;;;1.69;47.75;96143.22;5011668;28;20482;-64
2024/01/10 08:07:16;;;;;;;16.80;7.10;;;1.80;76.40;;;2.71;45.46;96142.88;5012298;28;20464;-64
2024/01/10 08:09:45;;;;;;;12.63;7.27;;;2.70;72.80;;;3.75;45.39;96137.72;5009722;28;20450;-65
2024/01/10 08:12:13;;;;;;;8.70;5.10;;;3.70;74.70;;;4.76;43.83;96146.22;5010934;28;20458;-64
2024/01/10 08:14:41;;;;;;;21.90;6.37;;;4.60;71.90;;;5.64;40.09;96142.78;5012135;28;20973;-63
2024/01/10 08:17:09;;;;;;;15.43;5.87;;;5.50;65.90;;;6.35;40.86;96136.50;5005574;28;20446;-62
2024/01/10 08:19:36;;;;;;;9.43;5.17;;;6.30;63.50;;;7.05;40.14;96145.75;5011716;28;20453;-62
2024/01/10 08:22:04;;;;;;;6.97;5.00;;;6.90;64.50;;;7.77;39.84;96143.34;5008497;28;20438;-65
2024/01/10 08:24:31;;;;;;;7.50;4.50;;;7.60;63.30;;;8.44;37.74;96148.94;5011146;28;20485;-62
2024/01/10 08:27:00;;;;;;;5.63;4.03;;;8.30;59.40;;;9.01;36.49;96141.91;5007893;28;20449;-62
2024/01/10 08:29:31;;;;;;;5.47;2.90;;;8.90;56.40;;;9.45;34.13;96143.38;5004707;28;20457;-61
2024/01/10 08:31:58;;;;;;;2.63;2.43;;;9.30;52.00;;;9.79;34.38;96138.50;5011106;28;20445;-62
2024/01/10 08:34:26;;;;;;;1.90;1.80;;;9.70;52.40;;;10.10;34.89;96145.16;5006246;28;20450;-62
2024/01/10 08:36:54;;;;;;;5.80;3.40;;;10.00;51.90;;;10.51;34.20;96145.91;5011216;28;20477;-62
2024/01/10 08:39:21;;;;;;;4.10;3.57;;;10.40;51.70;;;10.98;33.41;96141.66;5010682;28;20450;-62
2024/01/10 08:41:49;;;;;;;5.03;3.90;;;10.80;51.00;;;11.46;32.80;96144.31;5010453;28;20575;-62
2024/01/10 08:44:18;;;;;;;6.97;4.00;;;11.30;50.10;;;11.93;31.89;96140.84;5007751;28;20548;-62
2024/01/10 08:46:46;;;;;;;5.90;3.77;;;11.70;48.80;;;12.28;31.93;96148.69;5011581;28;20497;-62
2024/01/10 08:49:14;;;;;;;5.10;3.50;;;12.10;48.00;;;12.53;31.53;96145.00;5011641;28;20460;-62
2024/01/10 08:51:43;;;;;;;8.17;3.80;;;12.40;46.60;;;12.77;31.63;96140.56;5009933;28;20497;-63
2024/01/10 08:54:12;;;;;;;9.50;3.37;;;12.60;47.50;;;13.02;28.33;96142.06;5007673;28;20507;-62
2024/01/10 08:56:40;;;;;;;5.73;3.53;;;12.90;43.40;;;13.21;29.25;96147.53;5011829;28;20478;-63
2024/01/10 08:59:07;;;;;;;12.93;3.47;;;13.10;44.80;;;13.43;28.80;96140.53;5011652;28;20848;-61
2024/01/10 09:01:38;;;;;;;5.73;3.57;;;13.30;43.60;;;13.54;28.28;96134.34;5011241;28;20858;-61
2024/01/10 09:04:05;;;;;;;5.90;3.57;;;13.40;41.00;;;13.58;28.12;96136.63;5010011;28;20953;-62
2024/01/10 09:06:33;;;;;;;10.30;3.33;;;13.50;41.20;;;13.63;29.30;96131.81;5011294;28;20504;-62
2024/01/10 09:09:01;;;;;;;7.83;3.80;;;13.50;43.50;;;13.74;28.37;96132.69;5011914;28;21065;-62
2024/01/10 09:11:28;;;;;;;4.80;3.70;;;13.60;42.20;;;13.89;28.03;96126.13;5008806;28;20484;-62
2024/01/10 09:13:55;;;;;;;5.73;3.50;;;13.70;42.00;;;14.02;27.37;96127.72;5011631;28;20457;-64
2024/01/10 09:16:23;;;;;;;8.93;4.63;;;13.90;40.90;;;14.10;27.79;96125.31;5012142;28;20485;-65
2024/01/10 09:18:54;;;;;;;12.23;9.13;;;14.00;41.10;;;14.20;27.56;96120.88;5011347;28;20647;-62
2024/01/10 09:21:21;;;;;;;7.70;4.47;;;14.10;40.00;;;14.34;24.87;96128.50;5010459;28;20516;-63
2024/01/10 09:23:51;;;;;;;4.07;3.67;;;14.20;38.20;;;14.46;27.07;96116.00;5010438;28;20608;-61
2024/01/10 09:26:19;;;;;;;5.30;3.60;;;14.30;40.30;;;14.57;26.56;96123.00;5011080;28;20964;-62
2024/01/10 09:28:46;;;;;;;6.40;4.20;;;14.50;39.10;;;14.73;26.99;96125.16;5006974;28;20573;-62
2024/01/10 09:31:14;;;;;;;3.63;2.67;;;14.60;40.00;;;14.85;26.86;96120.63;5010413;28;21084;-64
2024/01/10 09:33:41;;;;;;;7.43;3.90;;;14.70;39.70;;;14.97;26.66;96122.19;5006529;28;20454;-63
2024/01/10 09:36:10;;;;;;;5.23;3.70;;;14.90;39.20;;;15.15;26.45;96121.50;5007088;28;20498;-66
2024/01/10 09:38:38;;;;;;;4.23;3.60;;;15.00;38.90;;;15.34;25.93;96115.41;5009726;28;20453;-64
2024/01/10 09:41:05;;;;;;;6.17;4.50;;;15.20;38.40;;;15.47;24.93;96112.47;5006616;28;20552;-64
2024/01/10 09:43:35;;;;;;;3.23;2.80;;;15.30;36.90;;;15.53;25.31;96118.06;5010580;28;20493;-64
2024/01/10 09:46:03;;;;;;;2.77;2.00;;;15.50;36.80;;;15.56;24.15;96119.59;5010358;28;20489;-64
2024/01/10 09:48:32;;;;;;;4.70;3.10;;;15.50;35.50;;;15.63;23.89;96110.13;5010748;28;20453;-63
2024/01/10 09:50:59;;;;;;;4.70;2.17;;;15.50;34.80;;;15.84;23.83;96109.13;5008940;28;20535;-62
2024/01/10 09:53:30;;;;;;;2.73;2.17;;;15.70;34.70;;;16.09;24.06;96111.16;5006010;28;20448;-61
2024/01/10 09:55:59;;;;;;;5.93;2.80;;;15.90;35.50;;;16.29;23.96;96111.13;5009605;28;20531;-63
2024/01/10 09:58:27;;;;;;;4.67;2.70;;;16.10;35.20;;;16.39;22.24;96101.31;5007120;28;21022;-64
2024/01/10 10:00:54;;;;;;;5.30;3.43;;;16.20;33.20;;;16.49;21.11;96099.44;5006373;28;20482;-64
2024/01/10 10:03:21;;;;;;;5.30;3.27;;;16.30;31.30;;;16.52;21.66;96094.84;5007984;28;20456;-63
2024/01/10 10:05:49;;;;;;;6.80;4.37;;;16.40;31.70;;;16.58;22.18;96095.09;5009831;28;20509;-64
2024/01/10 10:08:21;;;;;;;4.43;3.70;;;16.40;31.40;;;16.73;22.64;96084.81;5009781;28;20454;-62
2024/01/10 10:10:51;;;;;;;3.60;3.27;;;16.50;32.90;;;16.81;22.34;96082.25;5009418;28;20462;-61
2024/01/10 10:13:29;;;;;;;5.13;3.00;;;16.60;32.50;;;16.99;22.21;96084.97;5009595;28;20450;-62
2024/01/10 10:16:00;;;;;;;8.00;5.37;;;16.70;32.50;;;17.19;22.54;96075.03;5008291;28;20473;-62
2024/01/10 10:18:28;;;;;;;11.70;5.77;;;16.90;32.20;;;17.18;22.48;96078.69;5009640;28;20833;-62
2024/01/10 10:21:10;;;;;;;8.70;6.43;;;17.00;32.20;;;17.28;22.18;96070.63;5009470;28;20480;-62
2024/01/10 10:23:38;;;;;;;9.33;6.37;;;17.10;31.90;;;17.49;22.06;96070.34;5004406;28;20445;-62